Terminal Aerodrome Forecast
Issued by NWS Corpus Christi, TX

Home | Current Version | Previous Version | Text Only | Print | Product List | Glossary On
Versions: 1 2 3 4 5 6 7 8 9 10 11 12 13 14
000
FTUS44 KCRP 201100
TAFVCT
TAF
KVCT 201132Z 2012/2112 VRB04KT 6SM BR VCSH SCT015 BKN150
      TEMPO 2012/2014 5SM -SHRA BKN015
     FM201400 06008KT P6SM VCSH SCT018
     FM201700 08011KT P6SM VCTS BKN025CB BKN150
      TEMPO 2017/2021 4SM TSRA BKN018CB
     FM210000 08005KT P6SM SCT025
     FM211000 03003KT 4SM BR BKN018=

USA.gov is the U.S. government's official web portal to all federal, state and local government web resources and services.